Time;durP1;ratioP1;P1;durP2;ratioP2;P2;SDS_P1;SDS_P2;PMS_P1;PMS_P2;Temp;Humidity;BMP_temperature;BMP_pressure;BME280_temperature;BME280_humidity;BME280_pressure;Samples;Min_cycle;Max_cycle;Signal;HPM_P1;HPM_P2
2022/04/10 00:00:07;;;;;;;13.53;2.17;;;1.70;77.70;;;;;;5062267;28;20348;-73
2022/04/10 00:02:33;;;;;;;13.32;1.88;;;1.70;77.80;;;;;;5067532;28;20488;-73
2022/04/10 00:04:59;;;;;;;13.97;1.77;;;1.70;78.00;;;;;;5052912;28;20100;-74
2022/04/10 00:07:24;;;;;;;12.43;2.37;;;1.70;77.90;;;;;;5068480;28;20093;-73
2022/04/10 00:09:50;;;;;;;22.10;2.73;;;1.60;77.90;;;;;;5051003;28;20043;-74
2022/04/10 00:12:16;;;;;;;9.40;1.80;;;1.60;78.10;;;;;;5065021;28;20552;-73
2022/04/10 00:14:41;;;;;;;14.43;1.83;;;1.60;78.20;;;;;;5026030;28;20064;-73
2022/04/10 00:17:07;;;;;;;18.37;2.67;;;1.50;78.20;;;;;;5044959;28;20028;-73
2022/04/10 00:19:33;;;;;;;12.90;2.47;;;1.50;78.20;;;;;;5050155;28;20040;-74
2022/04/10 00:21:58;;;;;;;10.77;2.80;;;1.40;78.20;;;;;;5039558;28;20371;-73
2022/04/10 00:24:25;;;;;;;15.50;2.27;;;1.30;78.00;;;;;;5054370;28;20574;-73
2022/04/10 00:26:52;;;;;;;14.23;1.92;;;1.20;78.20;;;;;;5052233;28;20519;-73
2022/04/10 00:29:18;;;;;;;12.35;1.83;;;1.20;78.50;;;;;;5054304;28;20036;-73
2022/04/10 00:31:45;;;;;;;10.73;2.13;;;1.10;78.60;;;;;;5059553;28;20044;-73
2022/04/10 00:34:11;;;;;;;13.20;1.90;;;1.10;79.10;;;;;;5039249;28;20416;-73
2022/04/10 00:36:37;;;;;;;16.17;1.90;;;1.20;79.10;;;;;;5048098;28;20055;-73
2022/04/10 00:39:03;;;;;;;14.65;2.13;;;1.20;79.20;;;;;;5062429;28;20040;-73
2022/04/10 00:41:30;;;;;;;16.90;2.78;;;1.20;79.10;;;;;;5056819;28;20181;-73
2022/04/10 00:44:02;;;;;;;14.23;2.95;;;1.20;78.90;;;;;;5041731;28;20036;-73
2022/04/10 00:46:28;;;;;;;11.80;1.70;;;1.30;78.80;;;;;;5038699;28;20534;-73
2022/04/10 00:48:54;;;;;;;13.67;2.40;;;1.30;78.60;;;;;;5040298;28;20044;-73
2022/04/10 00:54:05;;;;;;;10.50;1.80;;;1.40;77.90;;;;;;5056926;28;20044;-73
2022/04/10 00:56:31;;;;;;;14.13;2.42;;;1.30;77.80;;;;;;5028797;28;20044;-73
2022/04/10 00:58:57;;;;;;;11.85;1.20;;;1.30;77.70;;;;;;5058204;28;20051;-73
2022/04/10 01:01:23;;;;;;;14.20;1.80;;;1.30;77.60;;;;;;5027704;28;20123;-73
2022/04/10 01:03:48;;;;;;;8.03;1.20;;;1.30;77.50;;;;;;5039969;28;20049;-73
2022/04/10 01:06:14;;;;;;;12.77;2.17;;;1.30;77.30;;;;;;5045403;28;20287;-73
2022/04/10 01:08:40;;;;;;;12.40;2.80;;;1.30;77.20;;;;;;5067161;28;20117;-73
2022/04/10 01:11:06;;;;;;;12.30;2.03;;;1.30;77.10;;;;;;5053114;28;20345;-73
2022/04/10 01:13:32;;;;;;;11.38;1.30;;;1.20;77.00;;;;;;5039631;28;20044;-73
2022/04/10 01:15:58;;;;;;;14.20;2.10;;;1.10;77.10;;;;;;5051234;28;20074;-73
2022/04/10 01:18:25;;;;;;;14.27;2.07;;;1.00;77.10;;;;;;5063835;28;20036;-73
2022/04/10 01:20:51;;;;;;;9.25;1.85;;;0.80;77.30;;;;;;5041216;28;20343;-73
2022/04/10 01:23:18;;;;;;;10.23;1.38;;;0.70;77.30;;;;;;5048903;28;20096;-73
2022/04/10 01:25:44;;;;;;;8.05;1.50;;;0.70;77.60;;;;;;5034183;28;20051;-73
2022/04/10 01:28:11;;;;;;;12.95;2.85;;;0.60;77.80;;;;;;5067173;28;20044;-73
2022/04/10 01:30:37;;;;;;;10.05;1.83;;;0.60;77.90;;;;;;5059399;28;20032;-73
2022/04/10 01:33:04;;;;;;;15.23;1.30;;;0.50;78.00;;;;;;5057103;28;20044;-73
2022/04/10 01:35:31;;;;;;;15.27;1.60;;;0.50;78.00;;;;;;5067399;28;20040;-73
2022/04/10 01:37:59;;;;;;;9.77;1.50;;;0.40;78.30;;;;;;5050791;28;20611;-73
2022/04/10 01:40:25;;;;;;;11.82;1.80;;;0.40;78.20;;;;;;5067939;28;20055;-73
2022/04/10 01:42:50;;;;;;;9.87;1.50;;;0.40;78.20;;;;;;5052809;28;20028;-73
2022/04/10 01:45:16;;;;;;;15.00;2.07;;;0.30;78.50;;;;;;5037814;28;20044;-73
2022/04/10 01:47:42;;;;;;;7.13;2.37;;;0.30;78.40;;;;;;5067089;28;20040;-73
2022/04/10 01:50:09;;;;;;;11.97;1.60;;;0.30;78.70;;;;;;5034464;28;20682;-73
2022/04/10 01:52:35;;;;;;;9.98;1.38;;;0.30;78.50;;;;;;5050427;28;20051;-73
2022/04/10 01:55:01;;;;;;;10.40;1.60;;;0.30;78.60;;;;;;5052155;28;20048;-73
2022/04/10 01:57:26;;;;;;;14.90;1.40;;;0.30;78.60;;;;;;5036478;28;20044;-73
2022/04/10 01:59:52;;;;;;;11.33;1.53;;;0.30;79.00;;;;;;5046976;28;20040;-73
2022/04/10 02:02:18;;;;;;;9.50;1.20;;;0.20;78.90;;;;;;5050456;28;20047;-73
2022/04/10 02:04:43;;;;;;;7.03;1.20;;;0.20;79.10;;;;;;5042874;28;20072;-73
2022/04/10 02:07:09;;;;;;;12.07;1.30;;;0.20;79.80;;;;;;5038725;28;20443;-73
2022/04/10 02:09:35;;;;;;;13.73;2.50;;;0.20;79.70;;;;;;5053292;28;20033;-72
2022/04/10 02:12:01;;;;;;;15.13;2.17;;;0.20;79.60;;;;;;5038857;28;20926;-72
2022/04/10 02:14:26;;;;;;;11.00;1.57;;;0.10;79.40;;;;;;5051308;28;20048;-72
2022/04/10 02:16:52;;;;;;;10.03;1.33;;;0.10;79.30;;;;;;5060355;28;20036;-72
2022/04/10 02:19:18;;;;;;;5.80;1.10;;;0.00;79.20;;;;;;5055147;28;20041;-72
2022/04/10 02:21:43;;;;;;;7.70;1.53;;;0.00;79.30;;;;;;5041210;28;20040;-73
2022/04/10 02:24:09;;;;;;;7.63;1.47;;;0.00;79.40;;;;;;5040373;28;20508;-73
2022/04/10 02:26:35;;;;;;;13.37;1.27;;;0.00;79.30;;;;;;5062316;28;20119;-73
2022/04/10 02:29:02;;;;;;;10.77;1.67;;;0.00;79.40;;;;;;5047610;28;20046;-73
2022/04/10 02:31:27;;;;;;;13.18;1.75;;;0.10;79.50;;;;;;5018434;28;20076;-73
2022/04/10 02:33:53;;;;;;;8.50;1.27;;;0.20;80.10;;;;;;5052512;28;20079;-73
2022/04/10 02:36:19;;;;;;;9.00;1.70;;;0.40;81.20;;;;;;5027730;28;20040;-73
2022/04/10 02:38:45;;;;;;;12.95;1.80;;;0.50;80.90;;;;;;5052933;28;20436;-73
2022/04/10 02:41:11;;;;;;;9.80;1.40;;;0.60;80.50;;;;;;5054663;28;20060;-73
2022/04/10 02:43:39;;;;;;;9.20;1.67;;;0.70;80.30;;;;;;5047542;28;20286;-73
2022/04/10 02:46:05;;;;;;;9.70;2.00;;;0.80;80.10;;;;;;5048198;28;20971;-73
2022/04/10 02:48:32;;;;;;;7.03;0.85;;;1.10;80.20;;;;;;5041134;28;21387;-73
2022/04/10 02:50:57;;;;;;;4.07;0.60;;;1.30;80.60;;;;;;5040275;28;20075;-73
2022/04/10 02:53:23;;;;;;;5.00;0.60;;;1.40;80.50;;;;;;5023504;28;20098;-73
2022/04/10 02:55:49;;;;;;;4.80;0.80;;;1.50;80.30;;;;;;5046688;28;20063;-73
2022/04/10 02:58:14;;;;;;;3.60;0.60;;;1.60;80.10;;;;;;5050194;28;20051;-73
2022/04/10 03:00:40;;;;;;;5.00;0.80;;;1.60;80.00;;;;;;5050568;28;20488;-74
2022/04/10 03:03:06;;;;;;;5.70;0.60;;;1.60;79.90;;;;;;5062742;28;20053;-73
2022/04/10 03:05:31;;;;;;;5.77;0.70;;;1.70;80.10;;;;;;5048779;28;20497;-74
2022/04/10 03:07:57;;;;;;;5.37;1.03;;;1.70;80.80;;;;;;5037049;28;20051;-73
2022/04/10 03:10:23;;;;;;;5.10;0.63;;;1.70;80.70;;;;;;5062926;28;20048;-73
2022/04/10 03:12:48;;;;;;;3.77;0.53;;;1.80;80.50;;;;;;5067593;28;20044;-74
2022/04/10 03:15:14;;;;;;;5.37;0.67;;;1.80;80.70;;;;;;5041244;28;20198;-74
2022/04/10 03:17:40;;;;;;;3.63;0.70;;;1.90;80.60;;;;;;5049412;28;20043;-74
2022/04/10 03:20:07;;;;;;;4.73;0.70;;;1.90;80.70;;;;;;5037825;28;20387;-74
2022/04/10 03:22:32;;;;;;;4.35;0.73;;;1.90;80.70;;;;;;5020583;28;20512;-74
2022/04/10 03:24:58;;;;;;;6.83;1.00;;;1.90;80.80;;;;;;5043512;28;20036;-74
2022/04/10 03:27:24;;;;;;;3.53;0.63;;;1.90;80.70;;;;;;5031082;28;20416;-74
2022/04/10 03:29:49;;;;;;;6.80;0.90;;;1.80;80.90;;;;;;5028980;28;20044;-74
2022/04/10 03:32:15;;;;;;;4.03;0.60;;;1.80;80.90;;;;;;5034659;28;20052;-74
2022/04/10 03:34:41;;;;;;;5.73;0.80;;;1.70;80.80;;;;;;5048233;28;20043;-73
2022/04/10 03:37:06;;;;;;;6.00;1.17;;;1.60;81.00;;;;;;5057041;28;20071;-74
2022/04/10 03:39:32;;;;;;;3.90;0.90;;;1.50;81.00;;;;;;5054972;28;20087;-73
2022/04/10 03:41:58;;;;;;;6.93;1.10;;;1.50;81.30;;;;;;5045878;28;20240;-74
2022/04/10 03:44:24;;;;;;;4.60;0.93;;;1.40;81.30;;;;;;5062902;28;20075;-74
2022/04/10 03:46:49;;;;;;;7.53;0.97;;;1.30;81.20;;;;;;5045497;28;20059;-73
2022/04/10 03:49:15;;;;;;;8.63;0.87;;;1.30;81.30;;;;;;5045701;28;20039;-74
2022/04/10 03:51:40;;;;;;;4.50;0.67;;;1.20;81.30;;;;;;5050815;28;20068;-74
2022/04/10 03:54:06;;;;;;;7.37;0.87;;;1.10;81.30;;;;;;5054248;28;20740;-74
2022/04/10 03:56:32;;;;;;;6.50;0.70;;;1.10;81.40;;;;;;5033220;28;20048;-74
2022/04/10 03:58:57;;;;;;;4.67;0.77;;;1.00;81.30;;;;;;5057970;28;20046;-74
2022/04/10 04:01:23;;;;;;;4.70;0.93;;;0.90;81.50;;;;;;5033373;28;20083;-74
2022/04/10 04:03:49;;;;;;;4.10;0.70;;;0.80;81.50;;;;;;5062788;28;20048;-74
2022/04/10 04:06:15;;;;;;;4.33;0.70;;;0.80;81.50;;;;;;5067144;28;20485;-74
2022/04/10 04:08:41;;;;;;;6.97;0.80;;;0.70;81.60;;;;;;5057053;28;20080;-73
2022/04/10 04:11:07;;;;;;;6.35;1.05;;;0.60;81.80;;;;;;5037660;28;20701;-74
2022/04/10 04:13:35;;;;;;;3.47;0.87;;;0.60;82.10;;;;;;5054167;28;20040;-73
2022/04/10 04:16:01;;;;;;;4.10;0.65;;;0.60;82.20;;;;;;5033643;28;20055;-74
2022/04/10 04:18:27;;;;;;;5.23;0.73;;;0.70;82.40;;;;;;5034745;28;20036;-74
2022/04/10 04:20:52;;;;;;;7.70;1.30;;;0.70;82.40;;;;;;5033885;28;20052;-73
2022/04/10 04:23:19;;;;;;;8.30;1.37;;;0.70;82.30;;;;;;5043936;28;20032;-73
2022/04/10 04:25:45;;;;;;;5.05;1.48;;;0.70;82.50;;;;;;5044211;28;20040;-74
2022/04/10 04:28:11;;;;;;;9.63;1.63;;;0.70;82.40;;;;;;5036306;28;20059;-74
2022/04/10 04:30:37;;;;;;;9.03;1.67;;;0.70;83.40;;;;;;5029178;28;20097;-74
2022/04/10 04:33:03;;;;;;;9.15;1.20;;;0.70;83.00;;;;;;5040474;28;20044;-74
2022/04/10 04:35:29;;;;;;;7.83;1.10;;;0.70;83.00;;;;;;5048923;28;20044;-72
2022/04/10 04:37:55;;;;;;;5.57;0.90;;;0.70;83.20;;;;;;5050223;28;20068;-72
2022/04/10 04:40:21;;;;;;;7.00;1.10;;;0.80;83.40;;;;;;5059986;28;20886;-72
2022/04/10 04:42:47;;;;;;;8.47;1.33;;;0.80;83.60;;;;;;5012767;28;20043;-73
2022/04/10 04:45:13;;;;;;;8.73;1.47;;;0.80;83.50;;;;;;5048850;28;20040;-73
2022/04/10 04:47:38;;;;;;;5.43;0.80;;;0.90;83.50;;;;;;5031163;28;20067;-72
2022/04/10 04:50:06;;;;;;;5.50;0.90;;;1.00;83.70;;;;;;5025954;28;20067;-73
2022/04/10 04:52:32;;;;;;;5.22;1.00;;;1.10;83.70;;;;;;5026141;28;20044;-73
2022/04/10 04:54:58;;;;;;;7.18;1.00;;;1.20;83.90;;;;;;5018362;28;20044;-73
2022/04/10 04:57:23;;;;;;;9.13;0.93;;;1.20;83.90;;;;;;5055661;28;20501;-73
2022/04/10 04:59:49;;;;;;;10.53;1.47;;;1.20;83.60;;;;;;5066935;28;20052;-73
2022/04/10 05:02:15;;;;;;;10.07;1.40;;;1.20;83.60;;;;;;5022942;28;20136;-73
2022/04/10 05:04:40;;;;;;;4.67;0.90;;;1.20;83.70;;;;;;5053007;28;20048;-74
2022/04/10 05:07:06;;;;;;;4.40;0.70;;;1.20;83.60;;;;;;5030779;28;20040;-74
2022/04/10 05:09:32;;;;;;;8.77;2.03;;;1.10;83.60;;;;;;5049770;28;20051;-73
2022/04/10 05:11:58;;;;;;;7.97;1.13;;;1.10;83.60;;;;;;5048720;28;20159;-73
2022/04/10 05:14:23;;;;;;;7.13;1.33;;;1.10;83.60;;;;;;5047156;28;20067;-73
2022/04/10 05:16:49;;;;;;;10.00;1.47;;;1.10;83.60;;;;;;5062536;28;20054;-73
2022/04/10 05:19:14;;;;;;;6.40;1.40;;;1.10;83.60;;;;;;5032034;28;20072;-73
2022/04/10 05:21:40;;;;;;;7.27;1.00;;;1.10;83.60;;;;;;5037879;28;20715;-73
2022/04/10 05:24:06;;;;;;;8.17;1.07;;;1.20;84.20;;;;;;5038469;28;20123;-73
2022/04/10 05:26:32;;;;;;;9.07;1.27;;;1.30;84.30;;;;;;5051160;28;20036;-73
2022/04/10 05:28:57;;;;;;;10.23;1.70;;;1.50;84.50;;;;;;5035762;28;20090;-73
2022/04/10 05:31:24;;;;;;;7.47;0.90;;;1.80;84.70;;;;;;5038656;28;20036;-74
2022/04/10 05:33:49;;;;;;;5.15;0.77;;;2.00;84.60;;;;;;5044632;28;20090;-74
2022/04/10 05:36:15;;;;;;;4.90;0.83;;;2.20;84.10;;;;;;5014667;28;20044;-73
2022/04/10 05:38:41;;;;;;;8.50;0.63;;;2.40;83.30;;;;;;5061843;28;20526;-74
2022/04/10 05:41:07;;;;;;;7.90;0.70;;;2.40;82.90;;;;;;5052362;28;20071;-73
2022/04/10 05:43:32;;;;;;;4.97;0.60;;;2.50;82.40;;;;;;5070466;28;20403;-73
2022/04/10 05:45:58;;;;;;;5.10;0.77;;;2.50;82.00;;;;;;5050596;28;20147;-74
2022/04/10 05:48:24;;;;;;;3.83;0.50;;;2.50;81.80;;;;;;5054567;28;20040;-73
2022/04/10 05:50:49;;;;;;;4.40;0.73;;;2.50;81.30;;;;;;5012849;28;20049;-73
2022/04/10 05:53:15;;;;;;;4.43;0.60;;;2.50;81.00;;;;;;5045319;28;20076;-73
2022/04/10 05:55:41;;;;;;;4.10;0.80;;;2.50;80.70;;;;;;5059301;28;20062;-74
2022/04/10 05:58:06;;;;;;;4.70;0.60;;;2.50;80.80;;;;;;5050041;28;20515;-73
2022/04/10 06:00:32;;;;;;;6.73;1.50;;;2.50;80.70;;;;;;5031996;28;20127;-73
2022/04/10 06:03:05;;;;;;;4.70;0.77;;;2.50;80.80;;;;;;5018074;28;20041;-73
2022/04/10 06:05:31;;;;;;;5.30;0.80;;;2.50;80.80;;;;;;5055956;28;20054;-74
2022/04/10 06:07:56;;;;;;;3.87;0.63;;;2.50;80.90;;;;;;5037589;28;21861;-74
2022/04/10 06:10:22;;;;;;;7.40;1.00;;;2.50;81.20;;;;;;5040985;28;20045;-73
2022/04/10 06:12:48;;;;;;;6.75;0.80;;;2.60;81.10;;;;;;5037222;28;20715;-73
2022/04/10 06:15:17;;;;;;;12.07;1.37;;;2.80;81.00;;;;;;5045060;28;20123;-74
2022/04/10 06:17:43;;;;;;;8.30;0.90;;;2.80;81.10;;;;;;5064749;28;20680;-74
2022/04/10 06:20:10;;;;;;;4.78;1.15;;;2.90;80.90;;;;;;5063981;28;20051;-73
2022/04/10 06:22:36;;;;;;;7.30;1.48;;;3.00;80.80;;;;;;5036467;28;20091;-74
2022/04/10 06:25:02;;;;;;;11.27;1.10;;;3.10;80.90;;;;;;5045912;28;20698;-74
2022/04/10 06:27:27;;;;;;;6.97;1.10;;;3.20;81.10;;;;;;5032775;28;20699;-73
2022/04/10 06:29:53;;;;;;;7.80;1.10;;;3.40;81.00;;;;;;5050948;28;20050;-74
2022/04/10 06:32:19;;;;;;;10.20;2.03;;;3.50;80.80;;;;;;5034228;28;20424;-74
2022/04/10 06:34:45;;;;;;;12.93;1.63;;;3.60;80.50;;;;;;5053779;28;20048;-74
2022/04/10 06:37:10;;;;;;;8.57;1.50;;;3.70;80.30;;;;;;5066740;28;20045;-74
2022/04/10 06:39:36;;;;;;;9.70;1.40;;;3.70;79.90;;;;;;5039205;28;20841;-74
2022/04/10 06:42:06;;;;;;;6.13;1.30;;;3.70;79.30;;;;;;5027150;28;20597;-73
2022/04/10 06:44:31;;;;;;;11.23;1.50;;;3.70;79.30;;;;;;5058437;28;20040;-74
2022/04/10 06:46:57;;;;;;;9.00;1.20;;;3.80;79.60;;;;;;5038086;28;20051;-73
2022/04/10 06:49:23;;;;;;;11.27;1.30;;;3.90;79.30;;;;;;5043000;28;20460;-73
2022/04/10 06:51:48;;;;;;;11.63;1.30;;;4.10;78.90;;;;;;5039848;28;20403;-74
2022/04/10 06:54:14;;;;;;;9.73;1.10;;;4.20;78.10;;;;;;5059016;28;20082;-74
2022/04/10 06:56:40;;;;;;;12.13;1.73;;;4.40;77.90;;;;;;5050336;28;20051;-74
2022/04/10 06:59:05;;;;;;;9.77;1.63;;;4.60;77.20;;;;;;5065897;28;20821;-73
2022/04/10 07:01:32;;;;;;;11.80;1.37;;;4.80;75.90;;;;;;5042316;28;20433;-73
2022/04/10 07:03:58;;;;;;;10.98;1.40;;;4.90;75.10;;;;;;5048854;28;20052;-73
2022/04/10 07:06:24;;;;;;;7.63;1.53;;;5.00;75.30;;;;;;5049990;28;20039;-73
2022/04/10 07:08:49;;;;;;;8.67;1.87;;;5.20;75.20;;;;;;5064876;28;20068;-73
2022/04/10 07:11:15;;;;;;;10.30;1.27;;;5.40;74.90;;;;;;5053006;28;20036;-73
2022/04/10 07:13:41;;;;;;;11.67;1.43;;;5.50;75.00;;;;;;5042410;28;20040;-73
2022/04/10 07:16:08;;;;;;;10.27;2.10;;;5.60;74.70;;;;;;5054695;28;20493;-73
2022/04/10 07:18:34;;;;;;;10.15;1.48;;;5.70;74.30;;;;;;5056541;28;20078;-74
2022/04/10 07:20:59;;;;;;;11.80;1.70;;;5.70;74.00;;;;;;5046639;28;20480;-73
2022/04/10 07:23:45;;;;;;;12.20;1.80;;;5.80;74.50;;;;;;5039314;28;20048;-73
2022/04/10 07:26:14;;;;;;;11.20;1.27;;;5.90;73.60;;;;;;5053844;28;20048;-74
2022/04/10 07:28:40;;;;;;;12.02;1.50;;;6.10;72.80;;;;;;5047798;28;20046;-73
2022/04/10 07:31:08;;;;;;;6.88;1.10;;;6.10;70.50;;;;;;5037284;28;20048;-73
2022/04/10 07:33:34;;;;;;;11.63;1.52;;;6.00;70.80;;;;;;5070019;28;20047;-74
2022/04/10 07:36:00;;;;;;;8.13;1.40;;;6.00;70.30;;;;;;5056826;28;20551;-74
2022/04/10 07:38:25;;;;;;;7.43;0.93;;;6.00;71.00;;;;;;5041877;28;20119;-74
2022/04/10 07:40:51;;;;;;;7.07;1.20;;;6.10;71.50;;;;;;5022823;28;20131;-74
2022/04/10 07:43:17;;;;;;;6.27;0.83;;;6.30;69.00;;;;;;5046593;28;20040;-74
2022/04/10 07:48:27;;;;;;;10.02;1.10;;;6.60;68.40;;;;;;5065036;28;20055;-74
2022/04/10 07:50:55;;;;;;;6.80;1.47;;;6.80;68.20;;;;;;5042968;28;20039;-74
2022/04/10 07:53:21;;;;;;;6.22;1.60;;;6.90;67.50;;;;;;5049753;28;20290;-74
2022/04/10 07:55:46;;;;;;;8.03;1.70;;;7.00;65.80;;;;;;5069953;28;20161;-74
2022/04/10 07:58:12;;;;;;;8.83;1.50;;;7.10;64.50;;;;;;5040934;28;20040;-74
2022/04/10 08:00:38;;;;;;;10.03;1.90;;;7.20;65.20;;;;;;5057370;28;20039;-73
2022/04/10 08:03:04;;;;;;;7.77;1.20;;;7.40;66.00;;;;;;5043474;28;20047;-73
2022/04/10 08:05:29;;;;;;;10.50;1.27;;;7.40;65.40;;;;;;5060730;28;20052;-74
2022/04/10 08:07:55;;;;;;;11.13;1.17;;;7.10;63.50;;;;;;5069580;28;20043;-73
2022/04/10 08:10:22;;;;;;;9.83;1.27;;;6.90;64.90;;;;;;5046991;28;20040;-73
2022/04/10 08:12:48;;;;;;;10.65;1.40;;;6.70;65.50;;;;;;5067473;28;20102;-74
2022/04/10 08:15:14;;;;;;;10.90;1.67;;;6.70;66.10;;;;;;5053475;28;20052;-74
2022/04/10 08:17:41;;;;;;;10.45;1.98;;;6.70;67.00;;;;;;5045281;28;20039;-74
2022/04/10 08:20:08;;;;;;;5.45;0.90;;;6.90;65.80;;;;;;5062815;28;20043;-74
2022/04/10 08:22:36;;;;;;;9.27;1.58;;;7.10;65.70;;;;;;5063884;28;20672;-75
2022/04/10 08:25:07;;;;;;;10.00;1.10;;;7.30;64.50;;;;;;5066411;28;20094;-74
2022/04/10 08:27:34;;;;;;;7.90;1.50;;;7.40;63.80;;;;;;5040033;28;20093;-74
2022/04/10 08:29:59;;;;;;;7.07;1.35;;;7.40;63.90;;;;;;5059676;28;20034;-74
2022/04/10 08:32:25;;;;;;;10.40;1.13;;;7.30;62.00;;;;;;5047579;28;20113;-74
2022/04/10 08:34:51;;;;;;;8.13;1.20;;;7.40;62.80;;;;;;5025953;28;20120;-74
2022/04/10 08:37:17;;;;;;;10.85;1.42;;;7.40;62.50;;;;;;5043099;28;20115;-74
2022/04/10 08:39:43;;;;;;;10.70;1.57;;;7.60;63.30;;;;;;5032604;28;20564;-74
2022/04/10 08:42:09;;;;;;;6.43;1.10;;;7.90;62.30;;;;;;5063687;28;20043;-74
2022/04/10 08:44:36;;;;;;;9.07;1.27;;;8.10;62.50;;;;;;5033630;28;20094;-74
2022/04/10 08:47:02;;;;;;;8.85;1.15;;;8.00;61.30;;;;;;5061886;28;20036;-74
2022/04/10 08:49:29;;;;;;;7.80;1.17;;;7.80;61.10;;;;;;5061094;28;20795;-74
2022/04/10 08:51:56;;;;;;;9.20;1.45;;;7.60;62.30;;;;;;5050432;28;20052;-75
2022/04/10 08:54:23;;;;;;;8.60;1.00;;;7.50;61.70;;;;;;5056584;28;20397;-75
2022/04/10 08:56:50;;;;;;;7.18;0.93;;;7.60;62.10;;;;;;5063768;28;20055;-74
2022/04/10 08:59:17;;;;;;;8.43;1.85;;;7.80;61.70;;;;;;5056856;28;20040;-74
2022/04/10 09:01:44;;;;;;;8.82;1.45;;;8.10;61.90;;;;;;5064793;28;20053;-74
2022/04/10 09:04:09;;;;;;;12.57;1.33;;;8.40;61.30;;;;;;5065587;28;20419;-75
2022/04/10 09:06:42;;;;;;;8.67;1.17;;;8.50;60.20;;;;;;5057252;28;20040;-74
2022/04/10 09:09:17;;;;;;;4.60;0.90;;;8.50;60.80;;;;;;5046185;28;20043;-74
2022/04/10 09:11:43;;;;;;;6.65;0.60;;;8.50;60.10;;;;;;5062595;28;20510;-75
2022/04/10 09:14:09;;;;;;;7.97;1.23;;;8.50;58.90;;;;;;5067184;28;20108;-75
2022/04/10 09:16:35;;;;;;;6.57;0.82;;;8.50;57.60;;;;;;5057980;28;20062;-74
2022/04/10 09:19:01;;;;;;;9.53;1.10;;;8.60;59.00;;;;;;5043664;28;20045;-74
2022/04/10 09:21:33;;;;;;;7.43;0.82;;;8.70;58.60;;;;;;5062063;28;20053;-74
2022/04/10 09:24:02;;;;;;;5.53;0.73;;;8.70;58.00;;;;;;5039705;28;20039;-74
2022/04/10 09:26:45;;;;;;;6.07;1.27;;;8.60;57.50;;;;;;5043481;28;20060;-74
2022/04/10 09:29:12;;;;;;;8.57;0.70;;;8.60;57.40;;;;;;5054196;28;20087;-75
2022/04/10 09:31:38;;;;;;;8.70;0.77;;;8.70;57.60;;;;;;5051764;28;20068;-74
2022/04/10 09:34:06;;;;;;;7.18;0.98;;;8.90;58.80;;;;;;5063051;28;20036;-74
2022/04/10 09:36:57;;;;;;;7.20;0.93;;;9.10;58.50;;;;;;5050002;28;20050;-74
2022/04/10 09:39:34;;;;;;;6.80;1.77;;;9.00;58.40;;;;;;5052173;28;20051;-75
2022/04/10 09:42:07;;;;;;;8.07;1.00;;;8.70;59.30;;;;;;5041476;28;20148;-74
2022/04/10 09:44:35;;;;;;;7.03;1.73;;;8.40;59.90;;;;;;5046254;28;20075;-74
2022/04/10 09:47:06;;;;;;;5.70;1.40;;;8.30;60.20;;;;;;5070076;28;20101;-74
2022/04/10 09:49:36;;;;;;;7.15;0.73;;;8.40;59.20;;;;;;5061322;28;20447;-74
2022/04/10 09:52:11;;;;;;;7.13;0.88;;;8.70;59.60;;;;;;5060393;28;20040;-74
2022/04/10 09:54:44;;;;;;;9.25;1.30;;;8.90;58.80;;;;;;5056286;28;20126;-74
2022/04/10 09:57:19;;;;;;;10.07;0.93;;;8.90;57.30;;;;;;5042537;28;20131;-75
2022/04/10 09:59:47;;;;;;;7.50;1.40;;;9.00;57.90;;;;;;5055653;28;20047;-75
2022/04/10 10:02:14;;;;;;;4.97;0.90;;;9.00;56.80;;;;;;5038130;28;20071;-75
2022/04/10 10:04:43;;;;;;;9.80;1.48;;;9.30;58.20;;;;;;5060169;28;20572;-74
2022/04/10 10:07:12;;;;;;;5.45;0.98;;;9.40;57.70;;;;;;5040269;28;20064;-74
2022/04/10 10:09:38;;;;;;;7.05;1.27;;;9.50;57.70;;;;;;5053011;28;20079;-74
2022/04/10 10:12:06;;;;;;;6.80;1.05;;;9.50;56.90;;;;;;5048970;28;20102;-74
2022/04/10 10:14:33;;;;;;;6.88;1.02;;;9.80;57.50;;;;;;5036450;28;20109;-74
2022/04/10 10:17:00;;;;;;;5.13;0.70;;;9.90;54.20;;;;;;5054694;28;20045;-74
2022/04/10 10:19:34;;;;;;;4.90;0.82;;;10.00;55.00;;;;;;5040555;28;20041;-74
2022/04/10 10:22:00;;;;;;;5.65;0.82;;;9.90;53.60;;;;;;5052950;28;20043;-74
2022/04/10 10:24:30;;;;;;;8.48;1.08;;;9.90;54.50;;;;;;5029291;28;20032;-74
2022/04/10 10:27:44;;;;;;;6.97;1.00;;;9.70;54.00;;;;;;5046170;28;20041;-74
2022/04/10 10:30:26;;;;;;;8.35;0.90;;;9.50;52.90;;;;;;4983700;28;20041;-74
2022/04/10 10:32:57;;;;;;;6.72;0.93;;;9.50;54.00;;;;;;5038897;28;20041;-74
2022/04/10 10:35:33;;;;;;;5.93;0.90;;;9.70;55.90;;;;;;5041775;28;20509;-74
2022/04/10 10:38:00;;;;;;;8.38;1.27;;;9.60;55.50;;;;;;5056903;28;20041;-74
2022/04/10 10:40:27;;;;;;;8.85;1.08;;;9.40;53.50;;;;;;5043271;28;20455;-74
2022/04/10 10:42:58;;;;;;;7.00;1.27;;;9.50;55.40;;;;;;5056353;28;20060;-74
2022/04/10 10:45:43;;;;;;;7.00;0.77;;;9.60;53.70;;;;;;5043423;28;20040;-74
2022/04/10 10:48:31;;;;;;;5.15;0.88;;;9.70;53.80;;;;;;5059661;28;20044;-74
2022/04/10 10:51:02;;;;;;;4.28;0.82;;;9.60;54.40;;;;;;5064802;28;20040;-74
2022/04/10 10:53:55;;;;;;;5.25;0.93;;;9.80;55.20;;;;;;5045142;28;20093;-74
2022/04/10 10:56:21;;;;;;;4.93;0.80;;;10.20;53.90;;;;;;5029698;28;20130;-74
2022/04/10 10:58:50;;;;;;;7.63;0.83;;;10.30;53.70;;;;;;5058477;28;20036;-74
2022/04/10 11:01:26;;;;;;;5.22;0.90;;;10.50;53.20;;;;;;5038784;28;20040;-74
2022/04/10 11:04:09;;;;;;;5.38;0.63;;;10.60;52.90;;;;;;5060871;28;20055;-74
2022/04/10 11:06:47;;;;;;;5.82;0.70;;;10.60;51.30;;;;;;5037612;28;20055;-74
2022/04/10 11:09:21;;;;;;;6.80;0.90;;;10.30;51.20;;;;;;5041784;28;20448;-74
2022/04/10 11:11:48;;;;;;;9.35;1.08;;;10.30;52.30;;;;;;5026179;28;20037;-74
2022/04/10 11:14:34;;;;;;;6.18;0.70;;;10.30;52.80;;;;;;5051567;28;20036;-74
2022/04/10 11:17:19;;;;;;;5.82;0.80;;;10.10;53.10;;;;;;5061073;28;20119;-74
2022/04/10 11:19:51;;;;;;;5.85;1.05;;;10.30;54.60;;;;;;5046190;28;20056;-74
2022/04/10 11:22:25;;;;;;;6.47;0.75;;;10.30;53.50;;;;;;5036490;28;20049;-74
2022/04/10 11:24:58;;;;;;;6.40;0.88;;;10.50;54.20;;;;;;5039198;28;20312;-74
2022/04/10 11:27:41;;;;;;;5.20;0.90;;;10.30;51.70;;;;;;5036391;28;20186;-74
2022/04/10 11:30:08;;;;;;;4.25;0.77;;;10.00;51.20;;;;;;5034519;28;20736;-74
2022/04/10 11:32:54;;;;;;;3.90;0.60;;;10.00;53.60;;;;;;5046727;28;20041;-73
2022/04/10 11:35:21;;;;;;;;;;;10.10;51.10;;;;;;5066883;28;20041;-74
2022/04/10 11:37:49;;;;;;;6.15;0.77;;;10.00;53.20;;;;;;5043379;28;19920;-74
2022/04/10 11:40:21;;;;;;;5.18;0.95;;;10.10;53.90;;;;;;5037933;28;20041;-74
2022/04/10 11:42:47;;;;;;;10.13;1.15;;;10.00;53.30;;;;;;5040458;28;21137;-74
2022/04/10 11:45:13;;;;;;;4.07;0.77;;;10.00;53.90;;;;;;5065720;28;20230;-74
2022/04/10 11:47:42;;;;;;;6.17;0.73;;;9.90;52.60;;;;;;5035232;28;20173;-74
2022/04/10 11:50:11;;;;;;;3.67;0.93;;;10.00;54.00;;;;;;5041614;28;20287;-74
2022/04/10 11:52:37;;;;;;;8.23;0.95;;;10.30;54.70;;;;;;5051700;28;20191;-74
2022/04/10 11:55:08;;;;;;;5.73;0.83;;;10.30;52.10;;;;;;5017758;28;20564;-74
2022/04/10 11:57:38;;;;;;;6.40;0.77;;;10.30;53.20;;;;;;5049968;28;20479;-74
2022/04/10 12:00:09;;;;;;;6.10;0.90;;;10.40;52.80;;;;;;5039483;28;20072;-74
2022/04/10 12:02:36;;;;;;;4.15;0.80;;;10.40;53.30;;;;;;5042509;28;20040;-74
2022/04/10 12:05:03;;;;;;;4.88;0.90;;;10.20;52.80;;;;;;5056158;28;20049;-74
2022/04/10 12:07:29;;;;;;;6.13;0.90;;;10.00;54.30;;;;;;5028639;28;20679;-74
2022/04/10 12:09:55;;;;;;;6.37;0.97;;;9.90;54.60;;;;;;5031127;28;20082;-74
2022/04/10 12:12:32;;;;;;;6.70;0.90;;;9.90;55.00;;;;;;5042772;28;20394;-74
2022/04/10 12:14:58;;;;;;;5.97;0.60;;;10.20;54.90;;;;;;5055590;28;20106;-74
2022/04/10 12:17:24;;;;;;;9.17;0.97;;;10.60;55.10;;;;;;5039358;28;20095;-74
2022/04/10 12:19:55;;;;;;;6.67;0.90;;;10.90;54.40;;;;;;5063877;28;20037;-74
2022/04/10 12:22:22;;;;;;;3.58;0.40;;;10.90;53.50;;;;;;5053520;28;20422;-74
2022/04/10 12:24:48;;;;;;;9.15;1.00;;;10.70;52.70;;;;;;5038528;28;20075;-74
2022/04/10 12:27:15;;;;;;;6.13;0.90;;;10.50;52.70;;;;;;5055969;28;20040;-74
2022/04/10 12:29:41;;;;;;;7.65;1.20;;;10.60;53.80;;;;;;5047823;28;20745;-74
2022/04/10 12:32:09;;;;;;;6.15;0.75;;;10.60;54.30;;;;;;5033253;28;20037;-74
2022/04/10 12:34:38;;;;;;;6.88;0.70;;;10.70;54.30;;;;;;5050218;28;20059;-74
2022/04/10 12:37:09;;;;;;;8.90;1.25;;;10.60;53.40;;;;;;5063479;28;20440;-74
2022/04/10 12:39:35;;;;;;;6.47;0.68;;;10.50;54.40;;;;;;5035713;28;20037;-74
2022/04/10 12:42:07;;;;;;;7.13;1.10;;;10.50;53.60;;;;;;5058540;28;20548;-74
2022/04/10 12:44:33;;;;;;;14.88;1.35;;;10.60;53.20;;;;;;5044773;28;20477;-74
2022/04/10 12:46:59;;;;;;;4.78;0.52;;;10.90;53.40;;;;;;5041842;28;20082;-74
2022/04/10 12:49:25;;;;;;;4.87;0.50;;;11.10;52.90;;;;;;5067006;28;20036;-74
2022/04/10 12:51:56;;;;;;;4.60;0.70;;;11.30;52.20;;;;;;5025855;28;20064;-74
2022/04/10 12:54:42;;;;;;;4.95;0.55;;;11.50;51.30;;;;;;5054388;28;20041;-74
2022/04/10 12:57:10;;;;;;;4.37;0.70;;;11.70;52.10;;;;;;5053632;28;20512;-74
2022/04/10 12:59:38;;;;;;;6.97;0.80;;;11.90;52.10;;;;;;5037552;28;20293;-74